createdAt,value
2024-02-16T00:02:04.591Z,139.05
2024-02-16T00:04:32.809Z,110.30
2024-02-16T00:07:00.821Z,76.05
2024-02-16T00:09:29.396Z,127.35
2024-02-16T00:11:58.753Z,94.30
2024-02-16T00:14:26.752Z,122.72
2024-02-16T00:16:54.732Z,102.65
2024-02-16T00:19:23.458Z,145.77
2024-02-16T00:21:53.123Z,195.82
2024-02-16T00:24:21.840Z,129.93
2024-02-16T00:26:50.853Z,171.40
2024-02-16T00:29:20.255Z,143.23
2024-02-16T00:31:48.105Z,78.43
2024-02-16T00:34:17.320Z,128.70
2024-02-16T00:36:45.556Z,118.00
2024-02-16T00:39:13.607Z,213.50
2024-02-16T00:41:41.625Z,139.27
2024-02-16T00:44:09.901Z,195.23
2024-02-16T00:46:40.914Z,154.77
2024-02-16T00:49:11.553Z,115.53
2024-02-16T00:51:42.551Z,102.80
2024-02-16T00:54:11.998Z,111.65
2024-02-16T00:56:40.051Z,86.63
2024-02-16T00:59:10.141Z,130.05
2024-02-16T01:01:38.454Z,97.68
2024-02-16T01:04:09.387Z,154.68
2024-02-16T01:06:37.365Z,180.15
2024-02-16T01:09:05.609Z,196.00
2024-02-16T01:11:33.465Z,153.23
2024-02-16T01:14:01.509Z,185.35
2024-02-16T01:16:29.828Z,166.30
2024-02-16T01:18:57.951Z,194.82
2024-02-16T01:21:27.936Z,185.70
2024-02-16T01:23:55.987Z,138.25
2024-02-16T01:26:23.960Z,95.45
2024-02-16T01:28:51.827Z,107.75
2024-02-16T01:31:19.692Z,96.68
2024-02-16T01:33:48.306Z,120.40
2024-02-16T01:36:16.249Z,133.80
2024-02-16T01:38:46.063Z,147.82
2024-02-16T01:41:16.287Z,101.32
2024-02-16T01:43:44.233Z,58.10
2024-02-16T01:46:12.203Z,75.82
2024-02-16T01:48:41.587Z,97.72
2024-02-16T01:51:12.014Z,99.07
2024-02-16T01:53:41.072Z,64.75
2024-02-16T01:56:11.080Z,152.82
2024-02-16T01:58:39.090Z,91.03
2024-02-16T02:01:08.259Z,58.00
2024-02-16T02:03:37.232Z,100.88
2024-02-16T02:06:05.313Z,85.30
2024-02-16T02:08:33.689Z,65.68
2024-02-16T02:11:01.668Z,75.10
2024-02-16T02:13:31.276Z,67.32
2024-02-16T02:16:00.888Z,74.13
2024-02-16T02:18:28.937Z,71.47
2024-02-16T02:20:56.946Z,77.65
2024-02-16T02:23:26.422Z,77.07
2024-02-16T02:25:54.568Z,71.45
2024-02-16T02:28:25.019Z,57.97
2024-02-16T02:30:54.734Z,67.65
2024-02-16T02:33:24.016Z,68.30
2024-02-16T02:35:52.462Z,52.70
2024-02-16T02:38:20.674Z,37.05
2024-02-16T02:40:49.876Z,52.58
2024-02-16T02:43:19.901Z,59.70
2024-02-16T02:45:47.831Z,55.25
2024-02-16T02:48:15.908Z,36.28
2024-02-16T02:50:44.548Z,48.83
2024-02-16T02:53:13.256Z,46.53
2024-02-16T02:55:41.063Z,61.70
2024-02-16T02:58:10.363Z,50.08
2024-02-16T03:00:38.441Z,49.85
2024-02-16T03:03:06.480Z,45.78
2024-02-16T03:05:34.425Z,34.95
2024-02-16T03:08:03.105Z,39.15
2024-02-16T03:10:36.171Z,36.90
2024-02-16T03:13:05.056Z,42.30
2024-02-16T03:15:34.652Z,44.53
2024-02-16T03:18:02.940Z,40.90
2024-02-16T03:20:31.897Z,28.83
2024-02-16T03:22:59.720Z,38.33
2024-02-16T03:25:27.726Z,35.85
2024-02-16T03:27:55.728Z,36.97
2024-02-16T03:30:23.974Z,31.40
2024-02-16T03:32:53.643Z,35.38
2024-02-16T03:35:21.561Z,28.58
2024-02-16T03:37:49.440Z,33.97
2024-02-16T03:40:18.099Z,33.13
2024-02-16T03:42:45.937Z,30.17
2024-02-16T03:45:13.892Z,29.25
2024-02-16T03:47:43.060Z,25.65
2024-02-16T03:50:15.755Z,25.67
2024-02-16T03:52:43.668Z,26.27
2024-02-16T03:55:11.463Z,24.63
2024-02-16T03:57:39.517Z,30.25
2024-02-16T04:00:09.434Z,23.55
2024-02-16T04:02:37.979Z,25.13
2024-02-16T04:05:06.264Z,28.48
2024-02-16T04:07:35.595Z,22.27
2024-02-16T04:10:03.510Z,27.55
2024-02-16T04:12:31.639Z,21.58
2024-02-16T04:14:59.778Z,22.15
2024-02-16T04:17:27.649Z,21.58
2024-02-16T04:19:55.609Z,23.92
2024-02-16T04:22:23.485Z,24.98
2024-02-16T04:24:52.687Z,20.40
2024-02-16T04:27:20.568Z,18.38
2024-02-16T04:29:48.429Z,22.48
2024-02-16T04:32:16.234Z,18.60
2024-02-16T04:34:44.138Z,19.10
2024-02-16T04:37:12.016Z,21.90
2024-02-16T04:39:40.425Z,21.17
2024-02-16T04:42:09.620Z,19.95
2024-02-16T04:44:39.646Z,21.95
2024-02-16T04:47:07.891Z,18.60
2024-02-16T04:49:35.819Z,17.10
2024-02-16T04:52:03.802Z,17.08
2024-02-16T04:54:32.045Z,18.52
2024-02-16T04:56:59.919Z,15.85
2024-02-16T04:59:29.159Z,18.05
2024-02-16T05:01:57.383Z,14.73
2024-02-16T05:04:25.206Z,14.55
2024-02-16T05:06:58.556Z,13.55
2024-02-16T05:09:27.772Z,15.30
2024-02-16T05:11:55.905Z,15.05
2024-02-16T05:14:25.124Z,16.55
2024-02-16T05:16:55.981Z,11.00
2024-02-16T05:19:25.201Z,10.65
2024-02-16T05:21:53.004Z,11.52
2024-02-16T05:24:21.734Z,12.52
2024-02-16T05:26:49.643Z,10.30
2024-02-16T05:29:17.456Z,10.65
2024-02-16T05:31:45.243Z,10.40
2024-02-16T05:34:15.116Z,10.23
2024-02-16T05:36:43.108Z,10.68
2024-02-16T05:39:22.055Z,8.90
2024-02-16T05:41:50.503Z,9.65
2024-02-16T05:44:18.341Z,8.23
2024-02-16T05:46:46.897Z,11.18
2024-02-16T05:49:16.266Z,8.43
2024-02-16T05:52:01.209Z,8.48
2024-02-16T05:54:29.324Z,8.50
2024-02-16T05:56:57.269Z,8.43
2024-02-16T05:59:26.248Z,8.73
2024-02-16T06:01:54.093Z,8.40
2024-02-16T06:04:23.308Z,8.23
2024-02-16T06:06:51.417Z,7.95
2024-02-16T06:09:19.307Z,8.23
2024-02-16T06:11:47.464Z,7.75
2024-02-16T06:14:19.488Z,8.27
2024-02-16T06:16:48.343Z,8.05
2024-02-16T06:19:16.651Z,7.68
2024-02-16T06:21:45.871Z,8.85
2024-02-16T06:24:13.700Z,8.00
2024-02-16T06:26:42.976Z,7.88
2024-02-16T06:29:11.080Z,7.28
2024-02-16T06:31:38.877Z,7.88
2024-02-16T06:34:06.770Z,8.77
2024-02-16T06:36:34.767Z,6.18
2024-02-16T06:39:04.263Z,7.70
2024-02-16T06:41:32.209Z,7.40
2024-02-16T06:44:00.001Z,7.88
2024-02-16T06:46:28.682Z,8.07
2024-02-16T06:48:57.635Z,8.00
2024-02-16T06:51:25.819Z,8.35
2024-02-16T06:53:53.644Z,7.53
2024-02-16T06:56:23.375Z,7.82
2024-02-16T06:58:51.216Z,9.15
2024-02-16T07:01:19.542Z,8.18
2024-02-16T07:03:47.754Z,7.65
2024-02-16T07:06:15.795Z,6.50
2024-02-16T07:08:44.382Z,8.40
2024-02-16T07:11:14.063Z,6.60
2024-02-16T07:13:44.636Z,5.55
2024-02-16T07:16:12.462Z,6.45
2024-02-16T07:18:40.457Z,7.97
2024-02-16T07:21:08.493Z,6.40
2024-02-16T07:23:36.338Z,6.90
2024-02-16T07:26:07.203Z,6.70
2024-02-16T07:28:36.371Z,11.85
2024-02-16T07:31:06.010Z,6.50
2024-02-16T07:33:33.976Z,7.25
2024-02-16T07:36:01.905Z,6.60
2024-02-16T07:38:30.025Z,8.15
2024-02-16T07:40:57.926Z,6.65
2024-02-16T07:43:26.170Z,5.65
2024-02-16T07:45:55.123Z,6.38
2024-02-16T07:48:24.980Z,6.50
2024-02-16T07:50:53.006Z,5.18
2024-02-16T07:53:20.931Z,9.82
2024-02-16T07:55:48.730Z,7.22
2024-02-16T07:58:16.539Z,5.57
2024-02-16T08:00:44.495Z,5.05
2024-02-16T08:03:12.473Z,4.72
2024-02-16T08:05:41.696Z,5.70
2024-02-16T08:08:09.522Z,4.32
2024-02-16T08:10:37.538Z,5.68
2024-02-16T08:13:05.913Z,5.82
2024-02-16T08:15:33.930Z,5.68
2024-02-16T08:18:02.071Z,8.18
2024-02-16T08:20:30.009Z,5.18
2024-02-16T08:23:00.536Z,9.65
2024-02-16T08:25:29.208Z,4.22
2024-02-16T08:27:56.998Z,4.95
2024-02-16T08:30:26.217Z,6.05
2024-02-16T08:32:55.210Z,7.53
2024-02-16T08:35:23.915Z,4.53
2024-02-16T08:37:52.069Z,6.35
2024-02-16T08:40:21.320Z,4.97
2024-02-16T08:42:49.276Z,5.90
2024-02-16T08:45:18.731Z,4.63
2024-02-16T08:47:48.786Z,7.47
2024-02-16T08:50:18.604Z,7.78
2024-02-16T08:52:46.645Z,5.50
2024-02-16T08:55:14.646Z,5.43
2024-02-16T08:57:44.122Z,5.15
2024-02-16T09:00:13.264Z,4.80
2024-02-16T09:02:41.156Z,7.78
2024-02-16T09:05:10.921Z,5.75
2024-02-16T09:07:39.674Z,9.02
2024-02-16T09:10:09.131Z,3.15
2024-02-16T09:12:37.180Z,7.15
2024-02-16T09:15:07.176Z,4.47
2024-02-16T09:17:35.070Z,5.50
2024-02-16T09:20:05.495Z,4.10
2024-02-16T09:25:04.302Z,5.35
2024-02-16T09:27:32.883Z,4.30
2024-02-16T09:30:00.931Z,3.55
2024-02-16T09:32:30.136Z,3.78
2024-02-16T09:34:58.285Z,3.92
2024-02-16T09:37:26.245Z,4.40
2024-02-16T09:39:55.494Z,4.30
2024-02-16T09:42:27.315Z,3.78
2024-02-16T09:44:56.683Z,4.10
2024-02-16T09:47:26.000Z,3.35
2024-02-16T09:49:55.464Z,3.88
2024-02-16T09:52:24.439Z,6.28
2024-02-16T09:54:52.282Z,2.60
2024-02-16T09:57:20.524Z,3.22
2024-02-16T09:59:48.338Z,2.88
2024-02-16T10:02:16.162Z,3.88
2024-02-16T10:04:44.030Z,2.25
2024-02-16T10:07:14.656Z,2.47
2024-02-16T10:09:43.507Z,3.22
2024-02-16T10:12:12.228Z,5.40
2024-02-16T10:14:42.251Z,2.47
2024-02-16T10:17:10.817Z,2.83
2024-02-16T10:19:41.976Z,3.30
2024-02-16T10:22:11.720Z,2.42
2024-02-16T10:24:41.596Z,2.20
2024-02-16T10:27:17.143Z,3.13
2024-02-16T10:29:46.449Z,2.33
2024-02-16T10:32:14.808Z,2.00
2024-02-16T10:34:43.603Z,2.50
2024-02-16T10:37:12.343Z,14.45
2024-02-16T10:39:43.443Z,8.02
2024-02-16T10:42:12.618Z,3.95
2024-02-16T10:44:43.709Z,6.18
2024-02-16T10:47:11.699Z,3.78
2024-02-16T10:49:40.054Z,4.60
2024-02-16T10:52:09.348Z,4.00
2024-02-16T10:54:38.960Z,4.10
2024-02-16T10:57:11.714Z,4.10
2024-02-16T10:59:47.419Z,3.55
2024-02-16T11:02:16.215Z,2.45
2024-02-16T11:04:47.997Z,3.28
2024-02-16T11:07:19.093Z,2.70
2024-02-16T11:09:49.054Z,3.85
2024-02-16T11:12:18.440Z,2.67
2024-02-16T11:14:48.392Z,4.38
2024-02-16T11:17:17.446Z,3.30
2024-02-16T11:19:47.001Z,5.00
2024-02-16T11:22:18.510Z,3.63
2024-02-16T11:24:47.954Z,3.40
2024-02-16T11:27:20.632Z,3.10
2024-02-16T11:29:51.484Z,3.35
2024-02-16T11:32:21.540Z,3.30
2024-02-16T11:34:50.141Z,4.82
2024-02-16T11:37:18.546Z,3.90
2024-02-16T11:39:48.176Z,4.13
2024-02-16T11:42:21.901Z,3.08
2024-02-16T11:44:56.899Z,3.17
2024-02-16T11:47:29.005Z,3.05
2024-02-16T11:50:05.962Z,2.95
2024-02-16T11:52:34.284Z,3.10
2024-02-16T11:55:04.868Z,3.20
2024-02-16T11:57:33.417Z,3.10
2024-02-16T12:00:05.269Z,3.35
2024-02-16T12:02:33.090Z,4.18
2024-02-16T12:05:03.930Z,3.65
2024-02-16T12:07:34.424Z,4.68
2024-02-16T12:10:06.149Z,4.80
2024-02-16T12:12:34.861Z,4.93
2024-02-16T12:15:04.790Z,3.33
2024-02-16T12:17:32.696Z,3.38
2024-02-16T12:20:01.061Z,5.30
2024-02-16T12:22:29.166Z,4.78
2024-02-16T12:24:58.025Z,3.83
2024-02-16T12:27:26.992Z,4.15
2024-02-16T12:29:54.898Z,5.57
2024-02-16T12:32:24.118Z,7.22
2024-02-16T12:34:52.184Z,4.80
2024-02-16T12:37:20.213Z,3.17
2024-02-16T12:39:49.114Z,3.40
2024-02-16T12:42:17.140Z,3.33
2024-02-16T12:44:45.028Z,3.00
2024-02-16T12:47:12.817Z,3.42
2024-02-16T12:49:42.138Z,3.33
2024-02-16T12:52:10.104Z,3.78
2024-02-16T12:54:37.910Z,3.50
2024-02-16T12:57:05.794Z,3.95
2024-02-16T12:59:33.655Z,3.50
2024-02-16T13:02:03.791Z,3.88
2024-02-16T13:04:33.744Z,3.20
2024-02-16T13:07:03.123Z,3.95
2024-02-16T13:09:31.555Z,2.95
2024-02-16T13:11:59.825Z,2.95
2024-02-16T13:14:28.365Z,4.55
2024-02-16T13:16:56.235Z,2.97
2024-02-16T13:19:25.242Z,4.18
2024-02-16T13:21:54.061Z,3.05
2024-02-16T13:24:23.361Z,2.88
2024-02-16T13:26:51.428Z,2.88
2024-02-16T13:29:19.281Z,4.68
2024-02-16T13:31:47.238Z,3.05
2024-02-16T13:34:15.981Z,3.10
2024-02-16T13:36:44.041Z,2.95
2024-02-16T13:39:12.917Z,3.33
2024-02-16T13:41:42.242Z,3.10
2024-02-16T13:44:10.078Z,5.35
2024-02-16T13:46:37.893Z,3.00
2024-02-16T13:49:06.069Z,3.95
2024-02-16T13:51:34.339Z,4.05
2024-02-16T13:54:02.271Z,2.97
2024-02-16T13:56:30.037Z,2.60
2024-02-16T13:58:59.218Z,2.90
2024-02-16T14:01:27.256Z,4.88
2024-02-16T14:03:55.218Z,5.30
2024-02-16T14:06:23.320Z,3.00
2024-02-16T14:08:54.924Z,2.70
2024-02-16T14:11:23.536Z,4.30
2024-02-16T14:13:51.807Z,2.90
2024-02-16T14:16:21.008Z,3.20
2024-02-16T14:18:50.348Z,4.50
2024-02-16T14:21:18.284Z,3.42
2024-02-16T14:23:46.761Z,3.55
2024-02-16T14:26:14.564Z,3.08
2024-02-16T14:28:42.986Z,4.20
2024-02-16T14:31:11.153Z,2.97
2024-02-16T14:33:40.617Z,4.63
2024-02-16T14:36:10.644Z,6.05
2024-02-16T14:38:38.447Z,4.78
2024-02-16T14:41:06.875Z,5.38
2024-02-16T14:43:34.965Z,4.40
2024-02-16T14:46:05.364Z,4.80
2024-02-16T14:48:33.797Z,8.45
2024-02-16T14:51:03.657Z,7.00
2024-02-16T14:53:34.062Z,5.90
2024-02-16T14:56:02.397Z,4.32
2024-02-16T14:58:30.218Z,7.22
2024-02-16T15:00:58.345Z,7.10
2024-02-16T15:03:28.300Z,4.80
2024-02-16T15:05:56.200Z,7.13
2024-02-16T15:08:25.492Z,5.32
2024-02-16T15:10:53.412Z,7.90
2024-02-16T15:13:21.228Z,7.07
2024-02-16T15:15:49.177Z,7.55
2024-02-16T15:18:17.162Z,6.07
2024-02-16T15:20:45.273Z,6.43
2024-02-16T15:23:13.091Z,10.85
2024-02-16T15:25:42.218Z,8.45
2024-02-16T15:28:10.047Z,6.28
2024-02-16T15:30:38.098Z,7.57
2024-02-16T15:33:06.781Z,6.60
2024-02-16T15:35:34.970Z,6.90
2024-02-16T15:38:02.978Z,3.92
2024-02-16T15:40:30.795Z,5.38
2024-02-16T15:43:03.889Z,5.15
2024-02-16T15:45:32.156Z,5.22
2024-02-16T15:48:00.462Z,4.93
2024-02-16T15:50:31.407Z,8.18
2024-02-16T15:52:59.425Z,7.82
2024-02-16T15:55:27.287Z,6.30
2024-02-16T15:57:55.196Z,6.97
2024-02-16T16:00:25.378Z,8.98
2024-02-16T16:02:53.361Z,11.88
2024-02-16T16:05:21.204Z,9.80
2024-02-16T16:07:49.532Z,9.77
2024-02-16T16:10:18.547Z,10.85
2024-02-16T16:12:46.960Z,10.45
2024-02-16T16:15:15.252Z,10.05
2024-02-16T16:17:44.836Z,9.55
2024-02-16T16:20:14.420Z,10.60
2024-02-16T16:22:42.422Z,13.45
2024-02-16T16:25:10.766Z,10.30
2024-02-16T16:27:38.704Z,13.90
2024-02-16T16:30:09.318Z,14.18
2024-02-16T16:32:37.215Z,12.25
2024-02-16T16:35:07.818Z,16.35
2024-02-16T16:37:35.769Z,17.63
2024-02-16T16:40:03.948Z,20.55
2024-02-16T16:42:32.920Z,25.35
2024-02-16T16:45:00.938Z,26.42
2024-02-16T16:47:29.803Z,29.10
2024-02-16T16:49:58.200Z,29.73
2024-02-16T16:52:27.471Z,34.92
2024-02-16T16:54:55.400Z,33.22
2024-02-16T16:57:23.330Z,35.13
2024-02-16T16:59:51.244Z,40.15
2024-02-16T17:02:19.079Z,40.05
2024-02-16T17:04:47.082Z,49.80
2024-02-16T17:07:19.053Z,50.40
2024-02-16T17:09:48.405Z,44.60
2024-02-16T17:12:17.352Z,53.53
2024-02-16T17:14:45.185Z,51.22
2024-02-16T17:17:13.000Z,57.45
2024-02-16T17:19:40.885Z,56.88
2024-02-16T17:22:08.847Z,48.67
2024-02-16T17:24:36.814Z,47.85
2024-02-16T17:27:06.905Z,49.80
2024-02-16T17:29:35.126Z,45.38
2024-02-16T17:32:02.905Z,44.53
2024-02-16T17:34:30.881Z,56.58
2024-02-16T17:36:59.481Z,54.95
2024-02-16T17:39:27.501Z,52.67
2024-02-16T17:41:56.026Z,45.47
2024-02-16T17:44:25.273Z,48.17
2024-02-16T17:46:53.125Z,54.28
2024-02-16T17:49:21.029Z,51.08
2024-02-16T17:51:49.117Z,52.33
2024-02-16T17:54:17.443Z,50.10
2024-02-16T17:56:45.314Z,50.22
2024-02-16T17:59:13.249Z,43.70
2024-02-16T18:01:43.424Z,41.15
2024-02-16T18:04:11.301Z,42.90
2024-02-16T18:06:43.100Z,39.28
2024-02-16T18:09:12.855Z,39.20
2024-02-16T18:11:41.075Z,42.58
2024-02-16T18:14:10.444Z,36.20
2024-02-16T18:16:38.241Z,37.53
2024-02-16T18:19:08.173Z,38.58
2024-02-16T18:21:36.583Z,47.47
2024-02-16T18:24:04.928Z,43.38
2024-02-16T18:26:35.072Z,45.50
2024-02-16T18:29:02.900Z,48.30
2024-02-16T18:31:31.936Z,40.85
2024-02-16T18:34:00.084Z,48.05
2024-02-16T18:36:31.733Z,45.45
2024-02-16T18:39:00.435Z,42.58
2024-02-16T18:41:28.371Z,41.50
2024-02-16T18:43:56.272Z,40.08
2024-02-16T18:46:24.135Z,38.63
2024-02-16T18:48:52.232Z,34.47
2024-02-16T18:51:20.463Z,29.25
2024-02-16T18:53:49.832Z,35.55
2024-02-16T18:56:18.744Z,30.58
2024-02-16T18:58:46.787Z,32.95
2024-02-16T19:01:19.195Z,36.47
2024-02-16T19:03:47.594Z,33.95
2024-02-16T19:06:15.415Z,32.50
2024-02-16T19:08:45.829Z,33.30
2024-02-16T19:11:15.075Z,33.08
2024-02-16T19:13:43.450Z,34.53
2024-02-16T19:16:11.340Z,36.28
2024-02-16T19:18:39.413Z,34.95
2024-02-16T19:21:08.890Z,29.70
2024-02-16T19:23:37.269Z,31.60
2024-02-16T19:26:06.824Z,34.38
2024-02-16T19:28:39.652Z,35.83
2024-02-16T19:31:09.404Z,36.63
2024-02-16T19:33:37.693Z,30.58
2024-02-16T19:36:07.269Z,34.35
2024-02-16T19:38:36.923Z,40.92
2024-02-16T19:41:05.334Z,35.38
2024-02-16T19:43:33.448Z,33.83
2024-02-16T19:46:03.932Z,38.13
2024-02-16T19:48:32.781Z,32.05
2024-02-16T19:51:01.368Z,31.77
2024-02-16T19:53:29.572Z,35.15
2024-02-16T19:55:57.764Z,29.77
2024-02-16T19:58:25.965Z,33.80
2024-02-16T20:00:54.067Z,36.45
2024-02-16T20:03:24.596Z,31.35
2024-02-16T20:05:53.565Z,33.42
2024-02-16T20:08:22.469Z,31.67
2024-02-16T20:10:50.382Z,35.70
2024-02-16T20:13:18.372Z,33.03
2024-02-16T20:15:46.276Z,27.80
2024-02-16T20:18:18.685Z,30.48
2024-02-16T20:20:48.261Z,31.92
2024-02-16T20:23:18.024Z,29.85
2024-02-16T20:25:47.447Z,29.05
2024-02-16T20:28:15.271Z,30.85
2024-02-16T20:30:43.169Z,29.33
2024-02-16T20:33:11.184Z,28.20
2024-02-16T20:35:39.315Z,21.83
2024-02-16T20:38:08.566Z,24.45
2024-02-16T20:40:36.445Z,25.25
2024-02-16T20:43:04.280Z,23.95
2024-02-16T20:45:32.291Z,22.33
2024-02-16T20:48:01.108Z,22.63
2024-02-16T20:50:29.578Z,21.80
2024-02-16T20:52:57.466Z,22.33
2024-02-16T20:55:26.899Z,20.60
2024-02-16T20:57:54.793Z,23.08
2024-02-16T21:00:23.905Z,20.80
2024-02-16T21:02:54.245Z,19.10
2024-02-16T21:05:22.739Z,18.48
2024-02-16T21:07:50.561Z,14.60
2024-02-16T21:10:18.974Z,18.20
2024-02-16T21:12:48.207Z,15.20
2024-02-16T21:15:16.557Z,16.35
2024-02-16T21:17:44.542Z,14.68
2024-02-16T21:20:12.913Z,16.30
2024-02-16T21:22:41.044Z,16.85
2024-02-16T21:25:10.153Z,18.08
2024-02-16T21:27:38.211Z,15.38
2024-02-16T21:30:08.937Z,18.85
2024-02-16T21:32:36.856Z,18.85
2024-02-16T21:35:05.127Z,17.65
2024-02-16T21:37:33.208Z,18.13
2024-02-16T21:40:01.003Z,19.42
2024-02-16T21:42:28.960Z,20.20
2024-02-16T21:44:56.821Z,21.70
2024-02-16T21:47:25.990Z,18.70
2024-02-16T21:49:53.900Z,17.90
2024-02-16T21:52:21.850Z,17.65
2024-02-16T21:54:49.771Z,18.25
2024-02-16T21:57:17.636Z,14.20
2024-02-16T21:59:45.485Z,15.10
2024-02-16T22:02:13.936Z,15.57
2024-02-16T22:04:43.881Z,13.90
2024-02-16T22:07:12.427Z,13.10
2024-02-16T22:09:40.381Z,15.02
2024-02-16T22:12:08.905Z,13.85
2024-02-16T22:14:36.928Z,14.13
2024-02-16T22:17:05.660Z,14.90
2024-02-16T22:19:33.551Z,16.48
2024-02-16T22:22:04.282Z,13.35
2024-02-16T22:24:32.279Z,16.23
2024-02-16T22:27:00.176Z,14.02
2024-02-16T22:29:28.400Z,17.80
2024-02-16T22:32:04.091Z,18.83
2024-02-16T22:34:36.538Z,15.98
2024-02-16T22:37:05.865Z,17.45
2024-02-16T22:39:33.778Z,17.45
2024-02-16T22:42:01.686Z,16.80
2024-02-16T22:44:30.358Z,14.88
2024-02-16T22:46:58.210Z,17.10
2024-02-16T22:49:26.165Z,15.52
2024-02-16T22:51:54.421Z,17.42
2024-02-16T22:54:23.748Z,16.52
2024-02-16T22:56:51.810Z,20.42
2024-02-16T22:59:19.613Z,15.70
2024-02-16T23:01:47.498Z,16.45
2024-02-16T23:04:15.405Z,18.58
2024-02-16T23:06:43.554Z,14.73
2024-02-16T23:09:13.104Z,19.50
2024-02-16T23:11:45.086Z,16.80
2024-02-16T23:14:12.928Z,23.30
2024-02-16T23:16:40.893Z,18.30
2024-02-16T23:19:08.881Z,14.70
2024-02-16T23:21:36.813Z,14.68
2024-02-16T23:24:05.116Z,16.13
2024-02-16T23:26:32.963Z,14.68
2024-02-16T23:29:02.133Z,14.82
2024-02-16T23:31:30.818Z,21.08
2024-02-16T23:33:58.865Z,16.48
2024-02-16T23:36:26.800Z,18.83
2024-02-16T23:38:55.464Z,13.95
2024-02-16T23:41:24.990Z,11.85
2024-02-16T23:43:55.709Z,10.95
2024-02-16T23:46:26.387Z,10.45
2024-02-16T23:48:54.330Z,8.50
2024-02-16T23:51:22.255Z,8.52
2024-02-16T23:53:50.314Z,6.47
2024-02-16T23:56:18.182Z,5.03
2024-02-16T23:58:46.093Z,3.95
